sensor_id;sensor_type;location;lat;lon;timestamp;P1;durP1;ratioP1;P2;durP2;ratioP2
69588;SDS011;56792;50.644;17.984;2023-03-30T00:01:06;7.00;;;3.70;;
69588;SDS011;56792;50.644;17.984;2023-03-30T00:03:41;8.30;;;3.70;;
69588;SDS011;56792;50.644;17.984;2023-03-30T00:06:10;6.00;;;3.40;;
69588;SDS011;56792;50.644;17.984;2023-03-30T00:08:46;8.10;;;3.80;;
69588;SDS011;56792;50.644;17.984;2023-03-30T00:11:15;7.10;;;3.80;;
69588;SDS011;56792;50.644;17.984;2023-03-30T00:13:44;7.20;;;3.70;;
69588;SDS011;56792;50.644;17.984;2023-03-30T00:16:13;8.10;;;3.70;;
69588;SDS011;56792;50.644;17.984;2023-03-30T00:18:41;6.70;;;3.70;;
69588;SDS011;56792;50.644;17.984;2023-03-30T00:21:10;6.70;;;3.20;;
69588;SDS011;56792;50.644;17.984;2023-03-30T00:23:39;8.00;;;3.70;;
69588;SDS011;56792;50.644;17.984;2023-03-30T00:26:07;6.70;;;3.40;;
69588;SDS011;56792;50.644;17.984;2023-03-30T00:28:35;7.60;;;3.90;;
69588;SDS011;56792;50.644;17.984;2023-03-30T00:31:04;9.00;;;3.90;;
69588;SDS011;56792;50.644;17.984;2023-03-30T00:33:32;6.50;;;3.30;;
69588;SDS011;56792;50.644;17.984;2023-03-30T00:36:01;6.20;;;3.30;;
69588;SDS011;56792;50.644;17.984;2023-03-30T00:38:29;5.80;;;3.30;;
69588;SDS011;56792;50.644;17.984;2023-03-30T00:40:59;6.10;;;3.20;;
69588;SDS011;56792;50.644;17.984;2023-03-30T00:43:28;6.20;;;3.30;;
69588;SDS011;56792;50.644;17.984;2023-03-30T00:45:58;7.10;;;3.50;;
69588;SDS011;56792;50.644;17.984;2023-03-30T00:48:28;6.80;;;3.50;;
69588;SDS011;56792;50.644;17.984;2023-03-30T00:50:59;6.40;;;3.70;;
69588;SDS011;56792;50.644;17.984;2023-03-30T00:53:32;8.30;;;3.70;;
69588;SDS011;56792;50.644;17.984;2023-03-30T00:56:05;8.10;;;4.00;;
69588;SDS011;56792;50.644;17.984;2023-03-30T00:58:36;7.60;;;3.50;;
69588;SDS011;56792;50.644;17.984;2023-03-30T01:01:09;7.90;;;4.40;;
69588;SDS011;56792;50.644;17.984;2023-03-30T01:03:43;8.20;;;3.90;;
69588;SDS011;56792;50.644;17.984;2023-03-30T01:06:15;10.30;;;4.20;;
69588;SDS011;56792;50.644;17.984;2023-03-30T01:08:47;7.30;;;3.50;;
69588;SDS011;56792;50.644;17.984;2023-03-30T01:11:16;8.60;;;4.00;;
69588;SDS011;56792;50.644;17.984;2023-03-30T01:13:47;6.40;;;3.40;;
69588;SDS011;56792;50.644;17.984;2023-03-30T01:16:25;7.20;;;3.90;;
69588;SDS011;56792;50.644;17.984;2023-03-30T01:19:03;7.60;;;3.90;;
69588;SDS011;56792;50.644;17.984;2023-03-30T01:25:10;6.60;;;3.60;;
69588;SDS011;56792;50.644;17.984;2023-03-30T01:28:28;8.50;;;3.90;;
69588;SDS011;56792;50.644;17.984;2023-03-30T01:31:27;6.70;;;4.00;;
69588;SDS011;56792;50.644;17.984;2023-03-30T01:37:57;6.20;;;3.40;;
69588;SDS011;56792;50.644;17.984;2023-03-30T01:40:36;7.20;;;3.40;;
69588;SDS011;56792;50.644;17.984;2023-03-30T01:43:15;6.90;;;3.80;;
69588;SDS011;56792;50.644;17.984;2023-03-30T01:45:50;7.10;;;3.90;;
69588;SDS011;56792;50.644;17.984;2023-03-30T01:48:25;8.70;;;4.50;;
69588;SDS011;56792;50.644;17.984;2023-03-30T01:51:07;7.90;;;3.90;;
69588;SDS011;56792;50.644;17.984;2023-03-30T01:53:45;7.80;;;4.40;;
69588;SDS011;56792;50.644;17.984;2023-03-30T01:56:22;7.00;;;3.50;;
69588;SDS011;56792;50.644;17.984;2023-03-30T01:58:56;8.60;;;4.20;;
69588;SDS011;56792;50.644;17.984;2023-03-30T02:01:29;7.40;;;4.10;;
69588;SDS011;56792;50.644;17.984;2023-03-30T02:04:00;9.10;;;4.90;;
69588;SDS011;56792;50.644;17.984;2023-03-30T02:06:34;6.70;;;4.00;;
69588;SDS011;56792;50.644;17.984;2023-03-30T02:09:08;9.40;;;4.20;;
69588;SDS011;56792;50.644;17.984;2023-03-30T02:11:42;7.80;;;4.10;;
69588;SDS011;56792;50.644;17.984;2023-03-30T02:14:15;8.50;;;4.30;;
69588;SDS011;56792;50.644;17.984;2023-03-30T02:16:46;6.90;;;4.00;;
69588;SDS011;56792;50.644;17.984;2023-03-30T02:19:16;7.40;;;4.00;;
69588;SDS011;56792;50.644;17.984;2023-03-30T02:21:46;8.80;;;4.00;;
69588;SDS011;56792;50.644;17.984;2023-03-30T02:24:20;9.50;;;4.00;;
69588;SDS011;56792;50.644;17.984;2023-03-30T02:26:52;8.50;;;4.40;;
69588;SDS011;56792;50.644;17.984;2023-03-30T02:29:22;7.80;;;4.50;;
69588;SDS011;56792;50.644;17.984;2023-03-30T02:31:53;8.00;;;4.20;;
69588;SDS011;56792;50.644;17.984;2023-03-30T02:34:35;8.50;;;4.70;;
69588;SDS011;56792;50.644;17.984;2023-03-30T02:37:25;7.10;;;4.40;;
69588;SDS011;56792;50.644;17.984;2023-03-30T02:40:25;8.50;;;4.50;;
69588;SDS011;56792;50.644;17.984;2023-03-30T02:43:25;8.60;;;4.80;;
69588;SDS011;56792;50.644;17.984;2023-03-30T02:46:10;9.00;;;4.50;;
69588;SDS011;56792;50.644;17.984;2023-03-30T02:48:55;9.00;;;4.40;;
69588;SDS011;56792;50.644;17.984;2023-03-30T02:51:41;9.10;;;4.50;;
69588;SDS011;56792;50.644;17.984;2023-03-30T02:54:29;8.30;;;4.60;;
69588;SDS011;56792;50.644;17.984;2023-03-30T02:57:25;9.90;;;4.50;;
69588;SDS011;56792;50.644;17.984;2023-03-30T03:00:28;7.30;;;4.30;;
69588;SDS011;56792;50.644;17.984;2023-03-30T03:03:07;7.70;;;3.50;;
69588;SDS011;56792;50.644;17.984;2023-03-30T03:05:40;8.40;;;4.40;;
69588;SDS011;56792;50.644;17.984;2023-03-30T03:08:14;7.30;;;3.90;;
69588;SDS011;56792;50.644;17.984;2023-03-30T03:10:44;8.80;;;4.10;;
69588;SDS011;56792;50.644;17.984;2023-03-30T03:13:13;8.00;;;4.60;;
69588;SDS011;56792;50.644;17.984;2023-03-30T03:15:42;6.90;;;3.90;;
69588;SDS011;56792;50.644;17.984;2023-03-30T03:18:11;9.20;;;4.50;;
69588;SDS011;56792;50.644;17.984;2023-03-30T03:20:40;8.00;;;4.00;;
69588;SDS011;56792;50.644;17.984;2023-03-30T03:23:08;8.70;;;4.30;;
69588;SDS011;56792;50.644;17.984;2023-03-30T03:25:44;8.60;;;4.20;;
69588;SDS011;56792;50.644;17.984;2023-03-30T03:28:15;8.90;;;4.50;;
69588;SDS011;56792;50.644;17.984;2023-03-30T03:30:55;8.50;;;4.40;;
69588;SDS011;56792;50.644;17.984;2023-03-30T03:33:24;7.60;;;4.10;;
69588;SDS011;56792;50.644;17.984;2023-03-30T03:36:02;7.90;;;4.30;;
69588;SDS011;56792;50.644;17.984;2023-03-30T03:38:32;7.20;;;4.30;;
69588;SDS011;56792;50.644;17.984;2023-03-30T03:41:02;9.70;;;4.40;;
69588;SDS011;56792;50.644;17.984;2023-03-30T03:43:30;8.00;;;4.50;;
69588;SDS011;56792;50.644;17.984;2023-03-30T03:45:58;7.80;;;4.20;;
69588;SDS011;56792;50.644;17.984;2023-03-30T03:48:26;9.90;;;4.70;;
69588;SDS011;56792;50.644;17.984;2023-03-30T03:50:56;9.80;;;4.10;;
69588;SDS011;56792;50.644;17.984;2023-03-30T03:53:27;9.80;;;4.80;;
69588;SDS011;56792;50.644;17.984;2023-03-30T03:55:59;7.70;;;4.30;;
69588;SDS011;56792;50.644;17.984;2023-03-30T03:58:28;9.40;;;4.60;;
69588;SDS011;56792;50.644;17.984;2023-03-30T04:00:59;8.90;;;4.40;;
69588;SDS011;56792;50.644;17.984;2023-03-30T04:03:28;7.80;;;4.10;;
69588;SDS011;56792;50.644;17.984;2023-03-30T04:05:58;8.20;;;4.70;;
69588;SDS011;56792;50.644;17.984;2023-03-30T04:08:28;9.10;;;4.50;;
69588;SDS011;56792;50.644;17.984;2023-03-30T04:11:05;7.40;;;4.40;;
69588;SDS011;56792;50.644;17.984;2023-03-30T04:13:48;7.50;;;4.40;;
69588;SDS011;56792;50.644;17.984;2023-03-30T04:16:40;7.20;;;4.30;;
69588;SDS011;56792;50.644;17.984;2023-03-30T04:19:26;10.10;;;4.80;;
69588;SDS011;56792;50.644;17.984;2023-03-30T04:22:23;9.20;;;4.50;;
69588;SDS011;56792;50.644;17.984;2023-03-30T04:25:00;9.20;;;4.10;;
69588;SDS011;56792;50.644;17.984;2023-03-30T04:27:47;10.70;;;4.60;;
69588;SDS011;56792;50.644;17.984;2023-03-30T04:30:49;7.20;;;3.40;;
69588;SDS011;56792;50.644;17.984;2023-03-30T04:33:52;7.60;;;4.00;;
69588;SDS011;56792;50.644;17.984;2023-03-30T04:36:50;8.20;;;3.70;;
69588;SDS011;56792;50.644;17.984;2023-03-30T04:39:25;9.00;;;4.20;;
69588;SDS011;56792;50.644;17.984;2023-03-30T04:42:15;7.60;;;3.90;;
69588;SDS011;56792;50.644;17.984;2023-03-30T04:44:58;7.80;;;3.50;;
69588;SDS011;56792;50.644;17.984;2023-03-30T04:47:47;6.50;;;3.60;;
69588;SDS011;56792;50.644;17.984;2023-03-30T04:50:24;7.60;;;4.10;;
69588;SDS011;56792;50.644;17.984;2023-03-30T04:53:11;5.40;;;3.30;;
69588;SDS011;56792;50.644;17.984;2023-03-30T04:55:59;6.20;;;3.60;;
69588;SDS011;56792;50.644;17.984;2023-03-30T04:58:27;6.80;;;3.90;;
69588;SDS011;56792;50.644;17.984;2023-03-30T05:01:10;6.80;;;3.90;;
69588;SDS011;56792;50.644;17.984;2023-03-30T05:03:39;8.90;;;3.90;;
69588;SDS011;56792;50.644;17.984;2023-03-30T05:06:25;8.50;;;4.20;;
69588;SDS011;56792;50.644;17.984;2023-03-30T05:09:13;8.00;;;4.30;;
69588;SDS011;56792;50.644;17.984;2023-03-30T05:11:56;7.60;;;4.20;;
69588;SDS011;56792;50.644;17.984;2023-03-30T05:14:37;8.20;;;4.10;;
69588;SDS011;56792;50.644;17.984;2023-03-30T05:17:32;7.30;;;3.90;;
69588;SDS011;56792;50.644;17.984;2023-03-30T05:20:19;7.20;;;3.80;;
69588;SDS011;56792;50.644;17.984;2023-03-30T05:23:06;6.50;;;3.50;;
69588;SDS011;56792;50.644;17.984;2023-03-30T05:25:55;8.60;;;4.00;;
69588;SDS011;56792;50.644;17.984;2023-03-30T05:28:47;8.20;;;3.70;;
69588;SDS011;56792;50.644;17.984;2023-03-30T05:31:18;6.60;;;3.70;;
69588;SDS011;56792;50.644;17.984;2023-03-30T05:34:05;7.30;;;3.60;;
69588;SDS011;56792;50.644;17.984;2023-03-30T05:36:59;7.20;;;3.70;;
69588;SDS011;56792;50.644;17.984;2023-03-30T05:39:28;7.70;;;3.40;;
69588;SDS011;56792;50.644;17.984;2023-03-30T05:42:10;6.20;;;3.70;;
69588;SDS011;56792;50.644;17.984;2023-03-30T05:45:11;7.70;;;3.70;;
69588;SDS011;56792;50.644;17.984;2023-03-30T05:48:00;10.20;;;4.50;;
69588;SDS011;56792;50.644;17.984;2023-03-30T05:50:49;8.20;;;4.20;;
69588;SDS011;56792;50.644;17.984;2023-03-30T05:53:30;8.50;;;4.30;;
69588;SDS011;56792;50.644;17.984;2023-03-30T05:56:23;8.20;;;4.20;;
69588;SDS011;56792;50.644;17.984;2023-03-30T05:58:56;8.70;;;4.60;;
69588;SDS011;56792;50.644;17.984;2023-03-30T06:01:44;7.70;;;4.20;;
69588;SDS011;56792;50.644;17.984;2023-03-30T06:04:13;10.80;;;4.50;;
69588;SDS011;56792;50.644;17.984;2023-03-30T06:06:42;10.80;;;4.70;;
69588;SDS011;56792;50.644;17.984;2023-03-30T06:09:10;9.90;;;4.90;;
69588;SDS011;56792;50.644;17.984;2023-03-30T06:11:39;8.50;;;4.90;;
69588;SDS011;56792;50.644;17.984;2023-03-30T06:14:27;8.30;;;4.10;;
69588;SDS011;56792;50.644;17.984;2023-03-30T06:17:25;7.70;;;4.50;;
69588;SDS011;56792;50.644;17.984;2023-03-30T06:19:54;7.60;;;4.30;;
69588;SDS011;56792;50.644;17.984;2023-03-30T06:22:22;8.20;;;4.50;;
69588;SDS011;56792;50.644;17.984;2023-03-30T06:25:05;8.30;;;4.20;;
69588;SDS011;56792;50.644;17.984;2023-03-30T06:27:35;9.90;;;4.50;;
69588;SDS011;56792;50.644;17.984;2023-03-30T06:30:05;7.70;;;3.70;;
69588;SDS011;56792;50.644;17.984;2023-03-30T06:32:36;8.30;;;3.90;;
69588;SDS011;56792;50.644;17.984;2023-03-30T06:35:20;9.30;;;4.30;;
69588;SDS011;56792;50.644;17.984;2023-03-30T06:37:49;10.80;;;4.70;;
69588;SDS011;56792;50.644;17.984;2023-03-30T06:40:18;9.20;;;4.70;;
69588;SDS011;56792;50.644;17.984;2023-03-30T06:42:48;12.10;;;5.40;;
69588;SDS011;56792;50.644;17.984;2023-03-30T06:45:37;9.20;;;4.50;;
69588;SDS011;56792;50.644;17.984;2023-03-30T06:48:05;7.90;;;4.60;;
69588;SDS011;56792;50.644;17.984;2023-03-30T06:50:35;7.80;;;4.30;;
69588;SDS011;56792;50.644;17.984;2023-03-30T06:53:12;9.80;;;4.50;;
69588;SDS011;56792;50.644;17.984;2023-03-30T06:55:42;8.60;;;4.60;;
69588;SDS011;56792;50.644;17.984;2023-03-30T06:58:15;10.00;;;5.00;;
69588;SDS011;56792;50.644;17.984;2023-03-30T07:00:43;10.70;;;5.20;;
69588;SDS011;56792;50.644;17.984;2023-03-30T07:03:30;9.00;;;5.00;;
69588;SDS011;56792;50.644;17.984;2023-03-30T07:06:16;8.30;;;4.70;;
69588;SDS011;56792;50.644;17.984;2023-03-30T07:08:46;9.10;;;4.60;;
69588;SDS011;56792;50.644;17.984;2023-03-30T07:11:18;7.40;;;4.50;;
69588;SDS011;56792;50.644;17.984;2023-03-30T07:13:49;9.30;;;4.30;;
69588;SDS011;56792;50.644;17.984;2023-03-30T07:16:18;8.00;;;5.40;;
69588;SDS011;56792;50.644;17.984;2023-03-30T07:18:47;8.90;;;5.20;;
69588;SDS011;56792;50.644;17.984;2023-03-30T07:21:15;9.80;;;5.30;;
69588;SDS011;56792;50.644;17.984;2023-03-30T07:23:43;9.50;;;4.70;;
69588;SDS011;56792;50.644;17.984;2023-03-30T07:26:18;6.80;;;4.30;;
69588;SDS011;56792;50.644;17.984;2023-03-30T07:28:52;9.30;;;4.60;;
69588;SDS011;56792;50.644;17.984;2023-03-30T07:31:22;9.40;;;4.70;;
69588;SDS011;56792;50.644;17.984;2023-03-30T07:33:52;9.10;;;4.60;;
69588;SDS011;56792;50.644;17.984;2023-03-30T07:36:24;7.90;;;4.30;;
69588;SDS011;56792;50.644;17.984;2023-03-30T07:38:52;8.70;;;4.40;;
69588;SDS011;56792;50.644;17.984;2023-03-30T07:41:20;7.10;;;4.00;;
69588;SDS011;56792;50.644;17.984;2023-03-30T07:43:52;7.80;;;4.40;;
69588;SDS011;56792;50.644;17.984;2023-03-30T07:46:20;9.20;;;4.40;;
69588;SDS011;56792;50.644;17.984;2023-03-30T07:48:50;7.30;;;4.30;;
69588;SDS011;56792;50.644;17.984;2023-03-30T07:51:19;7.70;;;4.50;;
69588;SDS011;56792;50.644;17.984;2023-03-30T07:53:59;7.30;;;4.00;;
69588;SDS011;56792;50.644;17.984;2023-03-30T07:56:35;11.50;;;4.80;;
69588;SDS011;56792;50.644;17.984;2023-03-30T07:59:05;8.60;;;4.20;;
69588;SDS011;56792;50.644;17.984;2023-03-30T08:01:34;8.90;;;4.40;;
69588;SDS011;56792;50.644;17.984;2023-03-30T08:04:17;6.20;;;3.90;;
69588;SDS011;56792;50.644;17.984;2023-03-30T08:06:46;5.20;;;3.30;;
69588;SDS011;56792;50.644;17.984;2023-03-30T08:09:15;5.90;;;3.70;;
69588;SDS011;56792;50.644;17.984;2023-03-30T08:11:44;8.00;;;4.10;;
69588;SDS011;56792;50.644;17.984;2023-03-30T08:14:12;6.40;;;4.40;;
69588;SDS011;56792;50.644;17.984;2023-03-30T08:16:41;8.10;;;4.60;;
69588;SDS011;56792;50.644;17.984;2023-03-30T08:19:09;7.30;;;3.40;;
69588;SDS011;56792;50.644;17.984;2023-03-30T08:21:37;7.60;;;4.00;;
69588;SDS011;56792;50.644;17.984;2023-03-30T08:24:07;8.00;;;4.00;;
69588;SDS011;56792;50.644;17.984;2023-03-30T08:26:36;8.10;;;4.20;;
69588;SDS011;56792;50.644;17.984;2023-03-30T08:29:04;9.10;;;4.80;;
69588;SDS011;56792;50.644;17.984;2023-03-30T08:31:32;6.90;;;4.10;;
69588;SDS011;56792;50.644;17.984;2023-03-30T08:34:03;5.70;;;3.40;;
69588;SDS011;56792;50.644;17.984;2023-03-30T08:36:32;7.80;;;4.70;;
69588;SDS011;56792;50.644;17.984;2023-03-30T08:39:00;8.10;;;4.30;;
69588;SDS011;56792;50.644;17.984;2023-03-30T08:41:51;7.20;;;3.90;;
69588;SDS011;56792;50.644;17.984;2023-03-30T08:44:31;7.90;;;4.00;;
69588;SDS011;56792;50.644;17.984;2023-03-30T08:47:04;7.90;;;4.20;;
69588;SDS011;56792;50.644;17.984;2023-03-30T08:49:41;7.70;;;4.00;;
69588;SDS011;56792;50.644;17.984;2023-03-30T08:52:17;7.40;;;4.50;;
69588;SDS011;56792;50.644;17.984;2023-03-30T08:54:50;8.70;;;4.40;;
69588;SDS011;56792;50.644;17.984;2023-03-30T08:57:30;7.80;;;4.00;;
69588;SDS011;56792;50.644;17.984;2023-03-30T09:00:14;7.60;;;4.20;;
69588;SDS011;56792;50.644;17.984;2023-03-30T09:02:50;7.50;;;4.30;;
69588;SDS011;56792;50.644;17.984;2023-03-30T09:05:27;8.30;;;4.70;;
69588;SDS011;56792;50.644;17.984;2023-03-30T09:08:02;9.30;;;4.70;;
69588;SDS011;56792;50.644;17.984;2023-03-30T09:10:41;7.50;;;4.30;;
69588;SDS011;56792;50.644;17.984;2023-03-30T09:13:15;7.90;;;4.50;;
69588;SDS011;56792;50.644;17.984;2023-03-30T09:15:48;8.50;;;4.60;;
69588;SDS011;56792;50.644;17.984;2023-03-30T09:18:23;6.60;;;3.70;;
69588;SDS011;56792;50.644;17.984;2023-03-30T09:20:57;7.80;;;4.00;;
69588;SDS011;56792;50.644;17.984;2023-03-30T09:23:28;7.60;;;4.00;;
69588;SDS011;56792;50.644;17.984;2023-03-30T09:26:02;7.60;;;4.40;;
69588;SDS011;56792;50.644;17.984;2023-03-30T09:28:44;7.30;;;3.70;;
69588;SDS011;56792;50.644;17.984;2023-03-30T09:31:23;7.00;;;3.50;;
69588;SDS011;56792;50.644;17.984;2023-03-30T09:33:57;5.60;;;3.40;;
69588;SDS011;56792;50.644;17.984;2023-03-30T09:36:35;7.00;;;3.70;;
69588;SDS011;56792;50.644;17.984;2023-03-30T09:39:16;9.00;;;3.30;;
69588;SDS011;56792;50.644;17.984;2023-03-30T09:41:55;6.60;;;4.10;;
69588;SDS011;56792;50.644;17.984;2023-03-30T09:44:36;7.40;;;4.30;;
69588;SDS011;56792;50.644;17.984;2023-03-30T09:47:18;7.10;;;4.30;;
69588;SDS011;56792;50.644;17.984;2023-03-30T09:49:56;8.20;;;3.70;;
69588;SDS011;56792;50.644;17.984;2023-03-30T09:52:26;6.70;;;4.30;;
69588;SDS011;56792;50.644;17.984;2023-03-30T09:54:56;8.10;;;3.70;;
69588;SDS011;56792;50.644;17.984;2023-03-30T09:57:42;6.90;;;3.80;;
69588;SDS011;56792;50.644;17.984;2023-03-30T10:00:24;7.00;;;4.00;;
69588;SDS011;56792;50.644;17.984;2023-03-30T10:02:58;5.80;;;3.60;;
69588;SDS011;56792;50.644;17.984;2023-03-30T10:05:28;7.00;;;3.80;;
69588;SDS011;56792;50.644;17.984;2023-03-30T10:08:01;6.90;;;4.00;;
69588;SDS011;56792;50.644;17.984;2023-03-30T10:10:33;7.30;;;4.40;;
69588;SDS011;56792;50.644;17.984;2023-03-30T10:13:07;8.60;;;4.60;;
69588;SDS011;56792;50.644;17.984;2023-03-30T10:15:40;8.40;;;4.30;;
69588;SDS011;56792;50.644;17.984;2023-03-30T10:18:27;7.00;;;4.10;;
69588;SDS011;56792;50.644;17.984;2023-03-30T10:21:01;5.00;;;3.30;;
69588;SDS011;56792;50.644;17.984;2023-03-30T10:23:32;5.90;;;3.80;;
69588;SDS011;56792;50.644;17.984;2023-03-30T10:26:11;8.70;;;4.60;;
69588;SDS011;56792;50.644;17.984;2023-03-30T10:28:52;7.40;;;5.20;;
69588;SDS011;56792;50.644;17.984;2023-03-30T10:31:22;8.00;;;4.40;;
69588;SDS011;56792;50.644;17.984;2023-03-30T10:33:54;6.20;;;4.50;;
69588;SDS011;56792;50.644;17.984;2023-03-30T10:36:29;8.10;;;4.90;;
69588;SDS011;56792;50.644;17.984;2023-03-30T10:39:09;8.60;;;4.50;;
69588;SDS011;56792;50.644;17.984;2023-03-30T10:41:40;9.70;;;4.70;;
69588;SDS011;56792;50.644;17.984;2023-03-30T10:44:20;6.70;;;3.50;;
69588;SDS011;56792;50.644;17.984;2023-03-30T10:46:52;6.60;;;3.70;;
69588;SDS011;56792;50.644;17.984;2023-03-30T10:49:43;7.60;;;4.20;;
69588;SDS011;56792;50.644;17.984;2023-03-30T10:52:22;6.80;;;3.90;;
69588;SDS011;56792;50.644;17.984;2023-03-30T10:55:00;6.80;;;3.70;;
69588;SDS011;56792;50.644;17.984;2023-03-30T10:57:43;6.50;;;4.10;;
69588;SDS011;56792;50.644;17.984;2023-03-30T11:00:23;10.90;;;4.40;;
69588;SDS011;56792;50.644;17.984;2023-03-30T11:03:04;7.30;;;4.40;;
69588;SDS011;56792;50.644;17.984;2023-03-30T11:05:36;7.40;;;3.60;;
69588;SDS011;56792;50.644;17.984;2023-03-30T11:08:11;7.10;;;3.60;;
69588;SDS011;56792;50.644;17.984;2023-03-30T11:10:45;7.10;;;3.80;;
69588;SDS011;56792;50.644;17.984;2023-03-30T11:13:18;6.50;;;3.50;;
69588;SDS011;56792;50.644;17.984;2023-03-30T11:15:52;5.90;;;3.70;;
69588;SDS011;56792;50.644;17.984;2023-03-30T11:18:26;6.90;;;3.40;;
69588;SDS011;56792;50.644;17.984;2023-03-30T11:21:01;7.00;;;3.80;;
69588;SDS011;56792;50.644;17.984;2023-03-30T11:23:41;7.90;;;3.00;;
69588;SDS011;56792;50.644;17.984;2023-03-30T11:26:17;6.10;;;3.40;;
69588;SDS011;56792;50.644;17.984;2023-03-30T11:28:56;6.20;;;3.30;;
69588;SDS011;56792;50.644;17.984;2023-03-30T11:31:39;6.80;;;3.50;;
69588;SDS011;56792;50.644;17.984;2023-03-30T11:34:20;7.20;;;3.50;;
69588;SDS011;56792;50.644;17.984;2023-03-30T11:37:01;6.90;;;3.50;;
69588;SDS011;56792;50.644;17.984;2023-03-30T11:39:34;7.70;;;3.70;;
69588;SDS011;56792;50.644;17.984;2023-03-30T11:42:15;6.50;;;3.70;;
69588;SDS011;56792;50.644;17.984;2023-03-30T11:44:48;7.80;;;3.50;;
69588;SDS011;56792;50.644;17.984;2023-03-30T11:47:33;10.00;;;3.50;;
69588;SDS011;56792;50.644;17.984;2023-03-30T11:50:26;7.80;;;3.50;;
69588;SDS011;56792;50.644;17.984;2023-03-30T11:53:10;7.50;;;3.20;;
69588;SDS011;56792;50.644;17.984;2023-03-30T11:55:56;8.20;;;3.60;;
69588;SDS011;56792;50.644;17.984;2023-03-30T11:58:35;7.00;;;2.90;;
69588;SDS011;56792;50.644;17.984;2023-03-30T12:01:20;7.50;;;3.50;;
69588;SDS011;56792;50.644;17.984;2023-03-30T12:04:00;8.50;;;4.20;;
69588;SDS011;56792;50.644;17.984;2023-03-30T12:06:37;7.30;;;3.50;;
69588;SDS011;56792;50.644;17.984;2023-03-30T12:09:19;8.80;;;4.20;;
69588;SDS011;56792;50.644;17.984;2023-03-30T12:11:54;7.10;;;4.00;;
69588;SDS011;56792;50.644;17.984;2023-03-30T12:14:45;8.20;;;4.20;;
69588;SDS011;56792;50.644;17.984;2023-03-30T12:17:39;7.00;;;3.70;;
69588;SDS011;56792;50.644;17.984;2023-03-30T12:20:30;6.60;;;3.00;;
69588;SDS011;56792;50.644;17.984;2023-03-30T12:23:15;6.60;;;3.00;;
69588;SDS011;56792;50.644;17.984;2023-03-30T12:26:04;8.20;;;3.20;;
69588;SDS011;56792;50.644;17.984;2023-03-30T12:28:46;6.20;;;2.40;;
69588;SDS011;56792;50.644;17.984;2023-03-30T12:31:22;6.80;;;3.30;;
69588;SDS011;56792;50.644;17.984;2023-03-30T12:34:11;6.80;;;2.50;;
69588;SDS011;56792;50.644;17.984;2023-03-30T12:36:40;4.80;;;2.90;;
69588;SDS011;56792;50.644;17.984;2023-03-30T12:39:16;12.00;;;6.00;;
69588;SDS011;56792;50.644;17.984;2023-03-30T12:41:59;14.10;;;9.90;;
69588;SDS011;56792;50.644;17.984;2023-03-30T12:44:39;8.80;;;3.60;;
69588;SDS011;56792;50.644;17.984;2023-03-30T12:47:33;6.80;;;3.10;;
69588;SDS011;56792;50.644;17.984;2023-03-30T12:50:18;8.40;;;2.90;;
69588;SDS011;56792;50.644;17.984;2023-03-30T12:53:21;7.60;;;3.00;;
69588;SDS011;56792;50.644;17.984;2023-03-30T12:56:04;8.80;;;3.40;;
69588;SDS011;56792;50.644;17.984;2023-03-30T12:58:58;8.60;;;3.90;;
69588;SDS011;56792;50.644;17.984;2023-03-30T13:01:54;7.70;;;3.60;;
69588;SDS011;56792;50.644;17.984;2023-03-30T13:04:33;10.00;;;5.00;;
69588;SDS011;56792;50.644;17.984;2023-03-30T13:07:06;8.90;;;4.30;;
69588;SDS011;56792;50.644;17.984;2023-03-30T13:09:52;10.90;;;3.70;;
69588;SDS011;56792;50.644;17.984;2023-03-30T13:12:31;9.30;;;3.60;;
69588;SDS011;56792;50.644;17.984;2023-03-30T13:15:17;10.90;;;3.80;;
69588;SDS011;56792;50.644;17.984;2023-03-30T13:17:58;8.70;;;4.50;;
69588;SDS011;56792;50.644;17.984;2023-03-30T13:20:30;9.30;;;4.10;;
69588;SDS011;56792;50.644;17.984;2023-03-30T13:23:20;8.80;;;4.60;;
69588;SDS011;56792;50.644;17.984;2023-03-30T13:26:01;11.00;;;4.50;;
69588;SDS011;56792;50.644;17.984;2023-03-30T13:28:35;9.50;;;4.60;;
69588;SDS011;56792;50.644;17.984;2023-03-30T13:31:28;8.10;;;4.50;;
69588;SDS011;56792;50.644;17.984;2023-03-30T13:34:15;8.60;;;3.80;;
69588;SDS011;56792;50.644;17.984;2023-03-30T13:36:54;14.80;;;4.90;;
69588;SDS011;56792;50.644;17.984;2023-03-30T13:39:35;9.00;;;4.80;;
69588;SDS011;56792;50.644;17.984;2023-03-30T13:42:25;9.30;;;5.00;;
69588;SDS011;56792;50.644;17.984;2023-03-30T13:45:05;8.30;;;4.70;;
69588;SDS011;56792;50.644;17.984;2023-03-30T13:47:53;9.10;;;4.60;;
69588;SDS011;56792;50.644;17.984;2023-03-30T13:50:29;12.50;;;4.80;;
69588;SDS011;56792;50.644;17.984;2023-03-30T13:53:02;9.80;;;5.60;;
69588;SDS011;56792;50.644;17.984;2023-03-30T13:55:37;11.20;;;5.00;;
69588;SDS011;56792;50.644;17.984;2023-03-30T13:58:12;11.90;;;5.10;;
69588;SDS011;56792;50.644;17.984;2023-03-30T14:00:47;9.20;;;4.40;;
69588;SDS011;56792;50.644;17.984;2023-03-30T14:03:32;14.40;;;6.30;;
69588;SDS011;56792;50.644;17.984;2023-03-30T14:06:06;17.20;;;6.70;;
69588;SDS011;56792;50.644;17.984;2023-03-30T14:08:43;17.50;;;7.10;;
69588;SDS011;56792;50.644;17.984;2023-03-30T14:11:16;15.70;;;6.50;;
69588;SDS011;56792;50.644;17.984;2023-03-30T14:13:48;14.80;;;7.10;;
69588;SDS011;56792;50.644;17.984;2023-03-30T14:16:20;13.50;;;6.60;;
69588;SDS011;56792;50.644;17.984;2023-03-30T14:18:51;16.20;;;9.50;;
69588;SDS011;56792;50.644;17.984;2023-03-30T14:21:21;18.20;;;7.40;;
69588;SDS011;56792;50.644;17.984;2023-03-30T14:23:51;15.60;;;7.50;;
69588;SDS011;56792;50.644;17.984;2023-03-30T14:26:24;13.70;;;6.90;;
69588;SDS011;56792;50.644;17.984;2023-03-30T14:28:55;12.50;;;6.40;;
69588;SDS011;56792;50.644;17.984;2023-03-30T14:31:25;11.90;;;5.40;;
69588;SDS011;56792;50.644;17.984;2023-03-30T14:33:53;11.90;;;5.30;;
69588;SDS011;56792;50.644;17.984;2023-03-30T14:36:22;9.30;;;5.40;;
69588;SDS011;56792;50.644;17.984;2023-03-30T14:38:51;11.00;;;5.20;;
69588;SDS011;56792;50.644;17.984;2023-03-30T14:41:21;16.90;;;7.60;;
69588;SDS011;56792;50.644;17.984;2023-03-30T14:43:54;39.80;;;22.30;;
69588;SDS011;56792;50.644;17.984;2023-03-30T14:46:28;21.60;;;11.00;;
69588;SDS011;56792;50.644;17.984;2023-03-30T14:49:04;12.10;;;6.30;;
69588;SDS011;56792;50.644;17.984;2023-03-30T14:51:36;12.90;;;6.30;;
69588;SDS011;56792;50.644;17.984;2023-03-30T14:54:09;10.70;;;5.60;;
69588;SDS011;56792;50.644;17.984;2023-03-30T14:56:42;9.00;;;4.80;;
69588;SDS011;56792;50.644;17.984;2023-03-30T14:59:12;9.70;;;5.10;;
69588;SDS011;56792;50.644;17.984;2023-03-30T15:01:45;9.30;;;4.30;;
69588;SDS011;56792;50.644;17.984;2023-03-30T15:04:14;8.00;;;4.10;;
69588;SDS011;56792;50.644;17.984;2023-03-30T15:06:45;8.40;;;4.30;;
69588;SDS011;56792;50.644;17.984;2023-03-30T15:09:16;9.30;;;4.20;;
69588;SDS011;56792;50.644;17.984;2023-03-30T15:11:48;6.70;;;4.20;;
69588;SDS011;56792;50.644;17.984;2023-03-30T15:14:22;10.70;;;5.50;;
69588;SDS011;56792;50.644;17.984;2023-03-30T15:16:54;12.60;;;5.90;;
69588;SDS011;56792;50.644;17.984;2023-03-30T15:19:27;13.30;;;8.10;;
69588;SDS011;56792;50.644;17.984;2023-03-30T15:21:59;10.70;;;5.70;;
69588;SDS011;56792;50.644;17.984;2023-03-30T15:24:31;14.90;;;7.70;;
69588;SDS011;56792;50.644;17.984;2023-03-30T15:27:05;14.00;;;8.60;;
69588;SDS011;56792;50.644;17.984;2023-03-30T15:29:38;17.00;;;9.40;;
69588;SDS011;56792;50.644;17.984;2023-03-30T15:32:14;17.40;;;9.80;;
69588;SDS011;56792;50.644;17.984;2023-03-30T15:34:58;19.00;;;10.50;;
69588;SDS011;56792;50.644;17.984;2023-03-30T15:37:33;16.40;;;9.70;;